Time;durP1;ratioP1;P1;durP2;ratioP2;P2;SDS_P1;SDS_P2;PMS_P1;PMS_P2;Temp;Humidity;BMP_temperature;BMP_pressure;BME280_temperature;BME280_humidity;BME280_pressure;Samples;Min_cycle;Max_cycle;Signal;HPM_P1;HPM_P2
2023/01/19 00:02:22;;;;;;;8.17;6.00;;;0.80;99.90;;;;;;4980649;29;20440;-41
2023/01/19 00:04:49;;;;;;;8.50;4.57;;;0.90;99.90;;;;;;4980298;29;20435;-41
2023/01/19 00:07:17;;;;;;;11.90;5.40;;;0.80;99.90;;;;;;4972805;29;20544;-41
2023/01/19 00:09:44;;;;;;;6.20;5.20;;;0.80;99.90;;;;;;4978261;29;20467;-41
2023/01/19 00:12:11;;;;;;;11.63;6.00;;;0.80;99.90;;;;;;4971022;29;20574;-43
2023/01/19 00:14:37;;;;;;;7.77;5.10;;;0.80;99.90;;;;;;4969467;28;20492;-41
2023/01/19 00:17:04;;;;;;;15.80;6.40;;;0.80;99.90;;;;;;4979744;29;20427;-41
2023/01/19 00:19:31;;;;;;;16.93;6.00;;;0.70;99.90;;;;;;4979924;29;20464;-39
2023/01/19 00:21:59;;;;;;;9.10;5.00;;;0.70;99.90;;;;;;4980697;28;20436;-40
2023/01/19 00:24:27;;;;;;;9.10;4.80;;;0.60;99.90;;;;;;4979927;29;20479;-41
2023/01/19 00:26:54;;;;;;;9.37;4.50;;;0.60;99.90;;;;;;4980554;29;20432;-41
2023/01/19 00:29:21;;;;;;;10.07;6.50;;;0.60;99.90;;;;;;4975435;29;20480;-41
2023/01/19 00:31:48;;;;;;;11.77;6.67;;;0.50;99.90;;;;;;4979455;29;20478;-42
2023/01/19 00:34:15;;;;;;;11.03;7.50;;;0.60;99.90;;;;;;4978741;29;20455;-40
2023/01/19 00:36:42;;;;;;;7.20;4.97;;;0.50;99.90;;;;;;4978807;29;20502;-41
2023/01/19 00:39:09;;;;;;;16.57;6.13;;;0.60;99.90;;;;;;4974425;29;20532;-41
2023/01/19 00:44:22;;;;;;;12.27;5.80;;;0.60;99.90;;;;;;4979585;29;20455;-42
2023/01/19 00:46:48;;;;;;;10.53;4.77;;;0.50;99.90;;;;;;4979725;29;20455;-47
2023/01/19 00:49:15;;;;;;;13.07;7.17;;;0.50;99.90;;;;;;4979359;29;20488;-42
2023/01/19 00:51:42;;;;;;;7.73;5.30;;;0.50;99.90;;;;;;4979573;29;20442;-40
2023/01/19 00:54:09;;;;;;;9.73;5.20;;;0.40;99.90;;;;;;4979436;29;20452;-44
2023/01/19 00:56:40;;;;;;;7.70;3.90;;;0.40;99.90;;;;;;4979344;29;20451;-41
2023/01/19 00:59:07;;;;;;;11.90;5.27;;;0.50;99.90;;;;;;4979607;28;20468;-38
2023/01/19 01:01:33;;;;;;;15.23;7.67;;;0.40;99.90;;;;;;4979798;29;20451;-40
2023/01/19 01:04:00;;;;;;;8.60;5.73;;;0.40;99.90;;;;;;4980172;29;20428;-40
2023/01/19 01:06:27;;;;;;;8.40;5.63;;;0.40;99.90;;;;;;4980314;28;20463;-40
2023/01/19 01:08:54;;;;;;;11.90;4.93;;;0.40;99.90;;;;;;4979480;28;20507;-39
2023/01/19 01:11:21;;;;;;;9.33;6.03;;;0.30;99.90;;;;;;4979594;28;20428;-40
2023/01/19 01:13:49;;;;;;;11.30;5.80;;;0.30;99.90;;;;;;4971702;29;20511;-42
2023/01/19 01:16:16;;;;;;;9.43;5.43;;;0.30;99.90;;;;;;4971624;29;20510;-41
2023/01/19 01:18:44;;;;;;;5.40;4.80;;;0.40;99.90;;;;;;4974666;29;20984;-44
2023/01/19 01:21:12;;;;;;;10.53;5.40;;;0.40;99.90;;;;;;4979070;29;20459;-43
2023/01/19 01:23:39;;;;;;;16.23;4.90;;;0.30;99.90;;;;;;4978438;29;20432;-45
2023/01/19 01:26:06;;;;;;;12.73;6.07;;;0.30;99.90;;;;;;4978147;29;20503;-46
2023/01/19 01:28:33;;;;;;;11.30;5.90;;;0.30;99.90;;;;;;4973498;29;20508;-42
2023/01/19 01:31:01;;;;;;;18.63;6.93;;;0.30;99.90;;;;;;4978592;29;20447;-41
2023/01/19 01:33:28;;;;;;;7.87;5.00;;;0.30;99.90;;;;;;4978936;29;20488;-41
2023/01/19 01:35:55;;;;;;;11.40;6.90;;;0.20;99.90;;;;;;4979074;29;20439;-46
2023/01/19 01:38:21;;;;;;;12.50;5.33;;;0.20;99.90;;;;;;4967851;29;20498;-41
2023/01/19 01:40:48;;;;;;;11.30;5.87;;;0.20;99.90;;;;;;4976111;29;20436;-43
2023/01/19 01:43:17;;;;;;;9.10;5.50;;;0.20;99.90;;;;;;4970435;29;20428;-40
2023/01/19 01:45:45;;;;;;;11.10;7.40;;;0.30;99.90;;;;;;4979470;29;20435;-43
2023/01/19 01:48:18;;;;;;;9.43;5.43;;;0.20;99.90;;;;;;4979676;28;20455;-40
2023/01/19 01:53:38;;;;;;;12.17;5.73;;;0.20;99.90;;;;;;4978887;29;20410;-39
2023/01/19 01:56:09;;;;;;;6.80;4.67;;;0.10;99.90;;;;;;4978361;29;20468;-48
2023/01/19 01:58:37;;;;;;;11.83;6.27;;;0.00;99.90;;;;;;4978557;29;20452;-40
2023/01/19 02:03:51;;;;;;;12.17;5.77;;;0.00;99.90;;;;;;4978295;29;20511;-43
2023/01/19 02:06:21;;;;;;;11.40;5.20;;;0.00;99.90;;;;;;4978733;29;20436;-41
2023/01/19 02:14:21;;;;;;;7.87;6.37;;;0.10;99.90;;;;;;4982156;29;20471;-40
2023/01/19 02:16:48;;;;;;;12.13;4.07;;;0.10;99.90;;;;;;4982148;29;20452;-46
2023/01/19 02:19:22;;;;;;;10.60;6.17;;;0.10;99.90;;;;;;4982591;29;20463;-39
2023/01/19 02:21:55;;;;;;;10.10;5.50;;;0.10;99.90;;;;;;4979039;29;20443;-42
2023/01/19 02:24:23;;;;;;;13.83;7.10;;;0.10;99.90;;;;;;4981769;29;20432;-44
2023/01/19 02:26:51;;;;;;;12.60;5.10;;;0.10;99.90;;;;;;4977357;29;20468;-41
2023/01/19 02:29:20;;;;;;;13.50;5.93;;;0.00;99.90;;;;;;4978716;29;20444;-43
2023/01/19 02:31:47;;;;;;;9.40;4.40;;;0.10;99.90;;;;;;4981530;29;20463;-41
2023/01/19 02:34:16;;;;;;;10.73;5.53;;;0.10;99.90;;;;;;4977217;29;20595;-42
2023/01/19 02:36:48;;;;;;;7.57;5.57;;;0.10;99.90;;;;;;4981452;29;20475;-41
2023/01/19 02:39:18;;;;;;;8.23;5.20;;;0.10;99.90;;;;;;4975892;29;20564;-43
2023/01/19 02:41:51;;;;;;;9.97;5.10;;;0.10;99.90;;;;;;4981452;29;20464;-39
2023/01/19 02:44:19;;;;;;;9.83;6.60;;;0.10;99.90;;;;;;4975361;29;20933;-41
2023/01/19 02:46:46;;;;;;;8.07;5.73;;;0.00;99.90;;;;;;4980628;29;20454;-41
2023/01/19 02:49:13;;;;;;;11.37;5.33;;;0.00;99.90;;;;;;4980855;29;20467;-40
2023/01/19 02:51:43;;;;;;;13.23;5.77;;;-0.10;99.90;;;;;;4981122;29;20440;-42
2023/01/19 02:54:30;;;;;;;10.27;7.07;;;-0.10;99.90;;;;;;4981051;29;20495;-39
2023/01/19 02:57:21;;;;;;;16.90;6.57;;;-0.10;99.90;;;;;;4976534;29;20471;-43
2023/01/19 02:59:58;;;;;;;8.57;5.40;;;-0.10;99.90;;;;;;4977746;29;20518;-42
2023/01/19 03:02:34;;;;;;;12.43;7.23;;;-0.20;99.90;;;;;;4981043;29;20428;-43
2023/01/19 03:05:16;;;;;;;10.73;6.17;;;-0.20;99.90;;;;;;4981496;28;20467;-43
2023/01/19 03:07:51;;;;;;;7.03;5.20;;;-0.20;99.90;;;;;;4980470;29;20425;-40
2023/01/19 03:10:26;;;;;;;14.17;8.00;;;-0.30;99.90;;;;;;4980628;29;20424;-42
2023/01/19 03:13:01;;;;;;;11.03;6.77;;;-0.40;99.90;;;;;;4981092;29;20428;-41
2023/01/19 03:15:35;;;;;;;18.00;7.17;;;-0.40;99.90;;;;;;4981075;29;20435;-43
2023/01/19 03:18:05;;;;;;;8.60;6.30;;;-0.40;99.90;;;;;;4981452;29;20522;-42
2023/01/19 03:20:32;;;;;;;18.73;7.07;;;-0.50;99.90;;;;;;4980841;29;20495;-40
2023/01/19 03:23:02;;;;;;;19.23;9.33;;;-0.50;99.90;;;;;;4980586;28;20458;-40
2023/01/19 03:25:33;;;;;;;12.27;5.70;;;-0.60;99.90;;;;;;4981209;29;20503;-44
2023/01/19 03:28:03;;;;;;;11.00;6.93;;;-0.60;99.90;;;;;;4980391;29;20515;-42
2023/01/19 03:30:34;;;;;;;13.13;8.00;;;-0.60;99.90;;;;;;4980432;29;20420;-43
2023/01/19 03:33:08;;;;;;;13.00;7.33;;;-0.70;99.90;;;;;;4980907;29;20464;-40
2023/01/19 03:35:37;;;;;;;14.87;7.30;;;-0.70;99.90;;;;;;4981007;29;20432;-42
2023/01/19 03:38:09;;;;;;;13.40;7.70;;;-0.70;99.90;;;;;;4980707;28;20459;-43
2023/01/19 03:40:37;;;;;;;9.70;4.97;;;-0.70;99.90;;;;;;4981361;29;20503;-42
2023/01/19 03:43:06;;;;;;;11.10;7.00;;;-0.70;99.90;;;;;;4981179;28;20431;-40
2023/01/19 03:45:34;;;;;;;14.63;7.80;;;-0.80;99.90;;;;;;4980852;29;20491;-40
2023/01/19 03:48:02;;;;;;;7.87;5.80;;;-0.80;99.90;;;;;;4981597;29;20444;-39
2023/01/19 03:50:30;;;;;;;10.50;7.13;;;-0.80;99.90;;;;;;4980857;29;20484;-41
2023/01/19 03:53:01;;;;;;;10.43;6.50;;;-0.80;99.90;;;;;;4981329;28;20471;-39
2023/01/19 03:55:28;;;;;;;8.23;6.80;;;-0.80;99.90;;;;;;4980323;29;20474;-38
2023/01/19 03:57:58;;;;;;;13.93;6.60;;;-0.80;99.90;;;;;;4980487;29;20467;-41
2023/01/19 04:00:26;;;;;;;16.23;7.97;;;-0.90;99.90;;;;;;4975371;29;20507;-41
2023/01/19 04:02:54;;;;;;;12.70;7.43;;;-0.90;99.90;;;;;;4980915;28;20443;-40
2023/01/19 04:05:21;;;;;;;13.20;8.97;;;-0.90;99.90;;;;;;4980772;29;20486;-41
2023/01/19 04:07:48;;;;;;;15.37;8.27;;;-1.00;99.90;;;;;;4980162;29;20468;-41
2023/01/19 04:10:16;;;;;;;15.40;7.20;;;-0.90;99.90;;;;;;4980227;29;20463;-41
2023/01/19 04:12:43;;;;;;;17.97;5.53;;;-0.90;99.90;;;;;;4980176;29;20463;-41
2023/01/19 04:15:10;;;;;;;11.40;6.50;;;-0.90;99.90;;;;;;4979858;29;20459;-43
2023/01/19 04:17:39;;;;;;;14.33;7.53;;;-0.90;99.90;;;;;;4980089;29;20499;-45
2023/01/19 04:20:08;;;;;;;12.57;7.47;;;-0.90;99.90;;;;;;4980191;28;20521;-44
2023/01/19 04:22:35;;;;;;;10.70;6.23;;;-0.90;99.90;;;;;;4979884;29;20436;-43
2023/01/19 04:25:02;;;;;;;10.97;6.00;;;-0.90;99.90;;;;;;4980473;29;20492;-46
2023/01/19 04:27:29;;;;;;;16.40;6.50;;;-0.90;99.90;;;;;;4980260;29;20524;-39
2023/01/19 04:29:55;;;;;;;7.47;5.80;;;-0.90;99.90;;;;;;4980546;29;20459;-38
2023/01/19 04:32:22;;;;;;;11.33;6.50;;;-0.90;99.90;;;;;;4980073;29;20516;-43
2023/01/19 04:34:50;;;;;;;9.47;7.10;;;-0.90;99.90;;;;;;4978647;28;20522;-42
2023/01/19 04:37:17;;;;;;;15.00;6.47;;;-0.90;99.90;;;;;;4979252;29;20492;-40
2023/01/19 04:39:44;;;;;;;12.03;6.80;;;-0.90;99.90;;;;;;4979069;29;20494;-41
2023/01/19 04:42:11;;;;;;;13.07;6.50;;;-0.90;99.90;;;;;;4979807;29;20508;-41
2023/01/19 04:44:38;;;;;;;12.40;8.20;;;-0.90;99.90;;;;;;4978959;29;20471;-39
2023/01/19 04:47:05;;;;;;;13.80;7.10;;;-1.00;99.90;;;;;;4976742;28;20472;-40
2023/01/19 04:49:32;;;;;;;9.63;6.70;;;-1.00;99.90;;;;;;4978987;29;20435;-43
2023/01/19 04:52:00;;;;;;;13.60;7.50;;;-1.10;99.90;;;;;;4978732;29;20506;-39
2023/01/19 04:54:27;;;;;;;18.93;7.40;;;-1.10;99.90;;;;;;4979719;29;20444;-40
2023/01/19 04:56:54;;;;;;;12.20;5.43;;;-1.20;99.90;;;;;;4979119;29;20479;-40
2023/01/19 04:59:21;;;;;;;11.43;6.23;;;-1.20;99.90;;;;;;4979635;29;20464;-39
2023/01/19 05:01:48;;;;;;;14.10;6.83;;;-1.20;99.90;;;;;;4974628;28;20482;-38
2023/01/19 05:04:15;;;;;;;13.67;8.07;;;-1.20;99.90;;;;;;4977070;29;20440;-40
2023/01/19 05:06:41;;;;;;;10.73;7.43;;;-1.20;99.90;;;;;;4979779;29;20448;-44
2023/01/19 05:09:13;;;;;;;10.40;6.77;;;-1.20;99.90;;;;;;4978975;29;20463;-41
2023/01/19 05:11:39;;;;;;;8.93;5.67;;;-1.10;99.90;;;;;;4979847;28;20432;-42
2023/01/19 05:14:06;;;;;;;13.93;7.97;;;-1.10;99.90;;;;;;4979088;29;20464;-41
2023/01/19 05:16:33;;;;;;;11.03;7.13;;;-1.10;99.90;;;;;;4979042;29;20428;-39
2023/01/19 05:19:00;;;;;;;7.70;5.27;;;-1.20;99.90;;;;;;4978968;28;20448;-42
2023/01/19 05:21:28;;;;;;;15.10;5.90;;;-1.20;99.90;;;;;;4978910;29;20499;-41
2023/01/19 05:23:54;;;;;;;7.93;5.40;;;-1.20;99.90;;;;;;4979245;29;20464;-45
2023/01/19 05:26:22;;;;;;;20.97;8.50;;;-1.20;99.90;;;;;;4979031;29;20459;-40
2023/01/19 05:28:51;;;;;;;9.47;5.50;;;-1.20;99.90;;;;;;4979202;28;20476;-45
2023/01/19 05:31:18;;;;;;;11.70;7.73;;;-1.30;99.90;;;;;;4979462;29;20490;-42
2023/01/19 05:33:45;;;;;;;14.73;6.50;;;-1.30;99.90;;;;;;4978776;29;20440;-41
2023/01/19 05:36:12;;;;;;;10.47;6.50;;;-1.30;99.90;;;;;;4978992;29;20467;-42
2023/01/19 05:38:39;;;;;;;38.60;9.60;;;-1.30;99.90;;;;;;4978356;29;20451;-41
2023/01/19 05:41:06;;;;;;;10.30;7.03;;;-1.30;99.90;;;;;;4975970;29;20503;-41
2023/01/19 05:43:34;;;;;;;8.93;6.70;;;-1.30;99.90;;;;;;4978299;29;20483;-39
2023/01/19 05:46:00;;;;;;;12.93;6.60;;;-1.30;99.90;;;;;;4980540;28;20443;-40
2023/01/19 05:48:27;;;;;;;8.30;5.07;;;-1.40;99.90;;;;;;4985397;28;20443;-42
2023/01/19 05:50:58;;;;;;;10.80;6.60;;;-1.40;99.90;;;;;;4985572;28;20478;-43
2023/01/19 05:53:25;;;;;;;9.83;6.13;;;-1.40;99.90;;;;;;4985246;28;20460;-40
2023/01/19 05:55:52;;;;;;;11.20;7.23;;;-1.40;99.90;;;;;;4985160;29;20446;-41
2023/01/19 05:58:19;;;;;;;9.07;6.97;;;-1.50;99.90;;;;;;4984693;29;20468;-40
2023/01/19 06:00:47;;;;;;;14.43;6.00;;;-1.50;99.90;;;;;;4984996;29;20532;-41
2023/01/19 06:03:14;;;;;;;15.73;6.50;;;-1.50;99.90;;;;;;4984576;28;20532;-38
2023/01/19 06:05:41;;;;;;;9.90;6.00;;;-1.50;99.90;;;;;;4985113;28;20506;-40
2023/01/19 06:08:08;;;;;;;14.50;8.63;;;-1.50;99.90;;;;;;4984667;28;20447;-41
2023/01/19 06:10:35;;;;;;;14.63;7.90;;;-1.50;99.90;;;;;;4984628;29;20471;-41
2023/01/19 06:13:02;;;;;;;13.87;7.90;;;-1.50;99.90;;;;;;4984927;29;20431;-41
2023/01/19 06:15:28;;;;;;;15.13;6.80;;;-1.50;99.90;;;;;;4982403;28;20462;-41
2023/01/19 06:17:57;;;;;;;12.57;6.17;;;-1.50;99.90;;;;;;4983112;28;20436;-42
2023/01/19 06:20:23;;;;;;;19.23;10.73;;;-1.50;99.90;;;;;;4983913;29;20490;-40
2023/01/19 06:22:50;;;;;;;14.27;6.70;;;-1.50;99.90;;;;;;4985236;28;20475;-40
2023/01/19 06:25:17;;;;;;;9.83;7.67;;;-1.50;99.90;;;;;;4983045;28;20451;-38
2023/01/19 06:27:47;;;;;;;11.53;7.43;;;-1.50;99.90;;;;;;4984998;28;20538;-44
2023/01/19 06:30:16;;;;;;;13.70;6.67;;;-1.50;99.90;;;;;;4984398;28;20460;-42
2023/01/19 06:32:42;;;;;;;9.50;8.10;;;-1.50;99.90;;;;;;4984509;29;20482;-45
2023/01/19 06:35:11;;;;;;;18.83;7.20;;;-1.50;99.90;;;;;;4985206;28;20435;-41
2023/01/19 06:37:38;;;;;;;17.30;9.33;;;-1.50;99.90;;;;;;4984788;29;20482;-42
2023/01/19 06:40:06;;;;;;;6.90;5.97;;;-1.50;99.90;;;;;;4984248;29;20526;-40
2023/01/19 06:42:33;;;;;;;11.47;7.10;;;-1.60;99.90;;;;;;4983969;29;20447;-39
2023/01/19 06:45:00;;;;;;;9.60;5.97;;;-1.60;99.90;;;;;;4984400;28;20507;-39
2023/01/19 06:47:26;;;;;;;14.23;7.63;;;-1.60;99.90;;;;;;4984395;28;20462;-40
2023/01/19 06:49:53;;;;;;;9.63;6.23;;;-1.70;99.90;;;;;;4984748;29;20466;-39
2023/01/19 06:52:21;;;;;;;8.60;5.60;;;-1.60;99.90;;;;;;4984901;28;20462;-41
2023/01/19 06:54:48;;;;;;;14.83;6.63;;;-1.60;99.90;;;;;;4984639;29;20518;-42
2023/01/19 06:57:16;;;;;;;13.27;6.50;;;-1.60;99.90;;;;;;4983878;28;20462;-40
2023/01/19 06:59:42;;;;;;;14.80;7.50;;;-1.50;99.90;;;;;;4981650;28;20511;-41
2023/01/19 07:02:10;;;;;;;15.17;6.83;;;-1.50;99.90;;;;;;4981696;28;20460;-40
2023/01/19 07:04:37;;;;;;;13.23;8.83;;;-1.50;99.90;;;;;;4981713;29;20491;-44
2023/01/19 07:07:04;;;;;;;13.83;6.73;;;-1.50;99.90;;;;;;4981963;29;20451;-40
2023/01/19 07:09:32;;;;;;;11.80;6.50;;;-1.50;99.90;;;;;;4981315;29;20436;-42
2023/01/19 07:11:59;;;;;;;9.13;6.33;;;-1.50;99.90;;;;;;4981533;29;20420;-42
2023/01/19 07:14:29;;;;;;;12.80;6.87;;;-1.60;99.90;;;;;;4981382;28;20528;-44
2023/01/19 07:16:56;;;;;;;12.50;8.67;;;-1.50;99.90;;;;;;4981004;29;20428;-43
2023/01/19 07:19:23;;;;;;;14.33;5.60;;;-1.50;99.90;;;;;;4980533;29;20470;-40
2023/01/19 07:21:50;;;;;;;12.33;6.83;;;-1.50;99.90;;;;;;4981503;29;20495;-41
2023/01/19 07:24:17;;;;;;;6.90;4.57;;;-1.50;99.90;;;;;;4981232;29;20443;-43
2023/01/19 07:26:45;;;;;;;12.07;6.40;;;-1.50;99.90;;;;;;4981508;28;20464;-43
2023/01/19 07:29:12;;;;;;;12.97;6.47;;;-1.50;99.90;;;;;;4981303;28;20467;-41
2023/01/19 07:31:39;;;;;;;13.97;7.40;;;-1.50;99.90;;;;;;4981369;29;20471;-42
2023/01/19 07:34:05;;;;;;;13.90;9.30;;;-1.50;99.90;;;;;;4981467;29;20432;-42
2023/01/19 07:36:32;;;;;;;11.60;6.47;;;-1.50;99.90;;;;;;4981273;28;20491;-42
2023/01/19 07:38:59;;;;;;;10.03;6.73;;;-1.50;99.90;;;;;;4981432;28;20440;-44
2023/01/19 07:41:26;;;;;;;8.07;6.10;;;-1.50;99.90;;;;;;4980783;29;20471;-43
2023/01/19 07:43:54;;;;;;;7.53;5.57;;;-1.50;99.90;;;;;;4980732;29;20428;-41
2023/01/19 07:46:21;;;;;;;8.30;5.10;;;-1.40;99.90;;;;;;4980653;28;20452;-43
2023/01/19 07:48:49;;;;;;;9.87;6.47;;;-1.50;99.90;;;;;;4980932;29;20444;-46
2023/01/19 07:51:17;;;;;;;9.73;8.10;;;-1.50;99.90;;;;;;4980525;29;20458;-42
2023/01/19 07:53:44;;;;;;;8.40;5.50;;;-1.50;99.90;;;;;;4980165;29;20463;-41
2023/01/19 07:56:12;;;;;;;13.77;5.17;;;-1.50;99.90;;;;;;4980230;29;20447;-39
2023/01/19 07:58:39;;;;;;;12.63;6.47;;;-1.40;99.90;;;;;;4980586;29;20495;-43
2023/01/19 08:01:08;;;;;;;11.47;7.10;;;-1.40;99.90;;;;;;4980333;29;20475;-41
2023/01/19 08:03:35;;;;;;;11.33;6.20;;;-1.40;99.90;;;;;;4980368;29;20432;-42
2023/01/19 08:06:04;;;;;;;7.53;5.17;;;-1.30;99.90;;;;;;4980879;29;20436;-39
2023/01/19 08:08:31;;;;;;;12.60;7.10;;;-1.30;99.90;;;;;;4980414;28;20450;-41
2023/01/19 08:10:58;;;;;;;11.60;6.63;;;-1.30;99.90;;;;;;4980328;29;20483;-40
2023/01/19 08:13:25;;;;;;;8.47;7.07;;;-1.30;99.90;;;;;;4980239;29;20440;-42
2023/01/19 08:15:53;;;;;;;11.97;5.90;;;-1.40;99.90;;;;;;4980815;29;20487;-41
2023/01/19 08:18:22;;;;;;;11.93;6.30;;;-1.40;99.90;;;;;;4980715;29;20504;-41
2023/01/19 08:20:48;;;;;;;8.90;5.47;;;-1.40;99.90;;;;;;4980521;29;20487;-43
2023/01/19 08:23:16;;;;;;;8.73;5.63;;;-1.40;99.90;;;;;;4980399;29;20495;-41
2023/01/19 08:25:44;;;;;;;8.73;5.57;;;-1.40;99.90;;;;;;4980504;28;20436;-39
2023/01/19 08:28:14;;;;;;;10.33;5.93;;;-1.30;99.90;;;;;;4973391;29;20454;-38
2023/01/19 08:30:42;;;;;;;12.27;5.57;;;-1.30;99.90;;;;;;4980000;28;20439;-43
2023/01/19 08:33:09;;;;;;;6.03;3.40;;;-1.30;99.90;;;;;;4979781;29;20519;-43
2023/01/19 08:35:40;;;;;;;11.67;5.30;;;-1.20;99.90;;;;;;4980484;29;20460;-42
2023/01/19 08:38:08;;;;;;;7.80;5.30;;;-1.10;99.90;;;;;;4980410;29;20472;-42
2023/01/19 08:40:37;;;;;;;13.80;5.27;;;-1.10;99.90;;;;;;4980332;29;20448;-40
2023/01/19 08:43:06;;;;;;;12.13;5.40;;;-1.10;99.90;;;;;;4980249;29;20491;-43
2023/01/19 08:45:34;;;;;;;7.23;5.40;;;-1.00;99.90;;;;;;4979693;29;20487;-41
2023/01/19 08:48:01;;;;;;;13.40;6.03;;;-1.00;99.90;;;;;;4980065;29;20441;-45
2023/01/19 08:50:29;;;;;;;8.33;4.60;;;-0.90;99.90;;;;;;4979384;28;20541;-42
2023/01/19 08:53:01;;;;;;;9.17;4.97;;;-0.80;99.90;;;;;;4979499;29;20496;-40
2023/01/19 08:55:28;;;;;;;7.17;4.07;;;-0.80;99.90;;;;;;4979711;29;20476;-39
2023/01/19 08:58:02;;;;;;;9.80;4.90;;;-0.70;99.90;;;;;;4979761;28;20448;-42
2023/01/19 09:00:30;;;;;;;8.23;4.43;;;-0.60;99.90;;;;;;4979467;28;20475;-41
2023/01/19 09:02:57;;;;;;;5.53;3.30;;;-0.60;99.90;;;;;;4980179;28;20424;-40
2023/01/19 09:05:24;;;;;;;12.83;6.00;;;-0.50;99.90;;;;;;4979581;29;20478;-39
2023/01/19 09:07:51;;;;;;;7.43;3.63;;;-0.40;99.90;;;;;;4979283;29;20468;-42
2023/01/19 09:10:20;;;;;;;5.17;3.60;;;-0.40;99.90;;;;;;4979435;29;20448;-41
2023/01/19 09:12:46;;;;;;;8.90;4.20;;;-0.40;99.90;;;;;;4979766;29;20468;-39
2023/01/19 09:15:14;;;;;;;9.83;4.40;;;-0.20;99.90;;;;;;4979613;28;20540;-40
2023/01/19 09:17:41;;;;;;;9.73;5.43;;;-0.10;99.90;;;;;;4979309;29;20478;-39
2023/01/19 09:20:09;;;;;;;10.97;4.93;;;-0.10;99.90;;;;;;4979151;28;20448;-44
2023/01/19 09:22:38;;;;;;;9.60;4.70;;;0.00;99.90;;;;;;4978443;29;20555;-41
2023/01/19 09:25:06;;;;;;;10.63;4.90;;;0.00;99.90;;;;;;4978586;29;20454;-42
2023/01/19 09:27:34;;;;;;;9.30;4.60;;;0.30;99.90;;;;;;4978084;29;20459;-42
2023/01/19 09:30:01;;;;;;;5.93;4.27;;;0.30;99.90;;;;;;4979333;29;20467;-40
2023/01/19 09:32:28;;;;;;;6.47;4.07;;;0.30;99.90;;;;;;4979358;28;20435;-41
2023/01/19 09:34:55;;;;;;;8.20;4.07;;;0.30;99.90;;;;;;4979477;29;20447;-43
2023/01/19 09:37:22;;;;;;;6.10;4.37;;;0.30;99.90;;;;;;4978044;29;20444;-41
2023/01/19 09:39:49;;;;;;;6.57;3.20;;;0.40;99.90;;;;;;4979070;29;20448;-43
2023/01/19 09:42:24;;;;;;;7.67;5.17;;;0.40;99.90;;;;;;4974801;29;20487;-41
2023/01/19 09:44:53;;;;;;;5.40;4.33;;;0.60;99.90;;;;;;4969610;29;20421;-44
2023/01/19 09:47:24;;;;;;;5.47;4.27;;;1.00;99.90;;;;;;4978961;28;20456;-43
2023/01/19 09:49:57;;;;;;;7.63;4.43;;;1.60;99.90;;;;;;4978505;29;20440;-42
2023/01/19 09:52:24;;;;;;;6.97;3.93;;;2.30;99.90;;;;;;4977940;29;20482;-47
2023/01/19 09:54:55;;;;;;;6.90;4.33;;;2.70;99.90;;;;;;4977992;29;20441;-44
2023/01/19 09:57:22;;;;;;;9.90;4.03;;;3.00;99.90;;;;;;4978066;29;20459;-41
2023/01/19 09:59:50;;;;;;;7.87;5.90;;;3.10;99.90;;;;;;4978937;29;20440;-41
2023/01/19 10:02:34;;;;;;;8.70;4.30;;;3.40;99.90;;;;;;4978679;28;20535;-40
2023/01/19 10:05:03;;;;;;;7.33;4.43;;;3.80;99.90;;;;;;4978077;29;20424;-46
2023/01/19 10:07:44;;;;;;;14.83;5.13;;;4.30;99.90;;;;;;4978389;29;20440;-48
2023/01/19 10:10:18;;;;;;;4.97;4.37;;;4.60;99.90;;;;;;4978075;29;20464;-40
2023/01/19 10:12:57;;;;;;;6.90;4.10;;;4.60;99.90;;;;;;4978743;29;20405;-44
2023/01/19 10:15:34;;;;;;;7.83;4.37;;;4.60;99.90;;;;;;4978346;29;20459;-40
2023/01/19 10:18:15;;;;;;;7.07;3.60;;;4.70;99.90;;;;;;4978259;28;20420;-41
2023/01/19 10:20:48;;;;;;;5.93;3.80;;;4.90;99.90;;;;;;4978237;29;20487;-45
2023/01/19 10:23:25;;;;;;;5.93;4.47;;;5.00;99.90;;;;;;4978725;29;20485;-41
2023/01/19 10:25:52;;;;;;;10.67;4.97;;;5.30;99.90;;;;;;4978142;29;20470;-45
2023/01/19 10:28:25;;;;;;;6.60;4.90;;;5.90;99.90;;;;;;4978034;29;20448;-44
2023/01/19 10:30:54;;;;;;;9.13;4.47;;;6.70;99.90;;;;;;4977677;29;20459;-42
2023/01/19 10:33:22;;;;;;;5.37;4.37;;;7.30;99.90;;;;;;4979321;28;20436;-43
2023/01/19 10:35:49;;;;;;;8.90;4.40;;;7.70;99.90;;;;;;4981223;29;20494;-42
2023/01/19 10:38:20;;;;;;;7.17;4.97;;;8.00;99.90;;;;;;4981864;29;20455;-46
2023/01/19 10:40:55;;;;;;;9.20;5.63;;;8.40;99.90;;;;;;4980718;29;20415;-44
2023/01/19 10:43:37;;;;;;;7.90;5.00;;;8.20;99.90;;;;;;4981305;29;20491;-41
2023/01/19 10:46:07;;;;;;;6.33;4.37;;;8.30;99.90;;;;;;4981645;29;20443;-43
2023/01/19 10:48:40;;;;;;;7.07;4.70;;;8.30;99.90;;;;;;4981326;29;20459;-43
2023/01/19 10:51:10;;;;;;;4.30;3.63;;;8.20;99.90;;;;;;4981322;29;20446;-42
2023/01/19 10:53:37;;;;;;;6.03;4.53;;;7.80;99.90;;;;;;4980991;29;20885;-44
2023/01/19 10:56:17;;;;;;;6.83;4.60;;;7.30;99.90;;;;;;4981124;29;20447;-43
2023/01/19 10:58:44;;;;;;;5.10;4.27;;;6.80;99.90;;;;;;4981920;29;20432;-43
2023/01/19 11:01:17;;;;;;;10.13;4.80;;;6.40;99.90;;;;;;4981472;28;20467;-45
2023/01/19 11:03:46;;;;;;;5.87;3.80;;;5.80;99.90;;;;;;4981868;29;20447;-45
2023/01/19 11:06:27;;;;;;;7.60;4.97;;;5.40;99.90;;;;;;4981767;29;20459;-42
2023/01/19 11:09:11;;;;;;;8.70;4.77;;;5.20;99.90;;;;;;4981002;29;20440;-45
2023/01/19 11:11:43;;;;;;;7.20;4.40;;;4.90;99.90;;;;;;4981371;28;20478;-43
2023/01/19 11:14:13;;;;;;;9.10;5.77;;;4.60;99.90;;;;;;4981613;29;20471;-44
2023/01/19 11:16:45;;;;;;;4.90;3.80;;;4.30;99.90;;;;;;4981053;28;20488;-41
2023/01/19 11:19:21;;;;;;;21.73;5.20;;;4.10;99.90;;;;;;4980260;29;20433;-41
2023/01/19 11:21:48;;;;;;;14.73;6.13;;;3.80;99.90;;;;;;4980969;29;20542;-41
2023/01/19 11:24:16;;;;;;;17.13;7.50;;;3.70;99.90;;;;;;4980388;29;20454;-45
2023/01/19 11:26:45;;;;;;;5.97;4.30;;;3.60;99.90;;;;;;4980098;29;20463;-48
2023/01/19 11:29:18;;;;;;;10.30;4.07;;;3.50;99.90;;;;;;4979811;29;20975;-41
2023/01/19 11:31:46;;;;;;;8.33;5.33;;;3.50;99.90;;;;;;4976212;29;20434;-44
2023/01/19 11:34:32;;;;;;;9.67;5.50;;;3.40;99.90;;;;;;4972868;29;20468;-42
2023/01/19 11:37:01;;;;;;;13.90;4.47;;;3.40;99.90;;;;;;4980749;29;20592;-41
2023/01/19 11:39:30;;;;;;;8.73;5.30;;;3.30;99.90;;;;;;4980385;29;20440;-41
2023/01/19 11:41:59;;;;;;;11.40;5.00;;;3.30;99.90;;;;;;4980553;29;20473;-45
2023/01/19 11:44:30;;;;;;;7.73;4.97;;;3.30;99.90;;;;;;4979798;28;20448;-40
2023/01/19 11:46:59;;;;;;;9.00;4.90;;;3.20;99.90;;;;;;4980441;29;20472;-41
2023/01/19 11:49:38;;;;;;;4.97;3.90;;;3.20;99.90;;;;;;4973091;28;20440;-41
2023/01/19 11:52:12;;;;;;;8.40;4.30;;;3.10;99.90;;;;;;4979455;29;20471;-41
2023/01/19 11:54:46;;;;;;;10.40;5.17;;;3.10;99.90;;;;;;4980639;29;20428;-43
2023/01/19 11:57:16;;;;;;;8.63;5.30;;;3.10;99.90;;;;;;4968339;29;20456;-44
2023/01/19 11:59:43;;;;;;;10.17;5.17;;;3.10;99.90;;;;;;4979658;29;20468;-42
2023/01/19 12:02:24;;;;;;;6.20;4.30;;;3.00;99.90;;;;;;4980044;29;20508;-44
2023/01/19 12:04:55;;;;;;;11.47;6.13;;;3.00;99.90;;;;;;4980122;29;20467;-41
2023/01/19 12:07:27;;;;;;;6.63;4.83;;;3.00;99.90;;;;;;4979842;29;20420;-42
2023/01/19 12:09:58;;;;;;;5.27;4.00;;;3.00;99.90;;;;;;4980013;29;20458;-41
2023/01/19 12:12:29;;;;;;;7.90;5.50;;;3.00;99.90;;;;;;4979902;29;20479;-40
2023/01/19 12:15:02;;;;;;;7.07;4.83;;;3.00;99.90;;;;;;4971440;29;20459;-46
2023/01/19 12:17:33;;;;;;;8.20;4.53;;;3.00;99.90;;;;;;4980543;29;20456;-44
2023/01/19 12:20:12;;;;;;;11.67;6.47;;;3.00;99.90;;;;;;4980577;29;20431;-46
2023/01/19 12:22:48;;;;;;;9.73;5.07;;;3.00;99.90;;;;;;4980231;29;20490;-42
2023/01/19 12:25:21;;;;;;;6.67;4.97;;;3.00;99.90;;;;;;4980106;29;20416;-41
2023/01/19 12:27:49;;;;;;;7.77;5.60;;;3.00;99.90;;;;;;4980107;29;20439;-41
2023/01/19 12:30:19;;;;;;;8.47;4.90;;;3.00;99.90;;;;;;4979890;28;20492;-41
2023/01/19 12:32:46;;;;;;;6.73;5.00;;;3.10;99.90;;;;;;4980144;29;20408;-42
2023/01/19 12:35:56;;;;;;;14.30;6.50;;;3.10;99.90;;;;;;4967067;29;20499;-42
2023/01/19 12:38:45;;;;;;;9.30;6.17;;;3.20;99.90;;;;;;4979352;29;20427;-41
2023/01/19 12:41:21;;;;;;;12.87;8.90;;;3.20;99.90;;;;;;4979198;28;20452;-42
2023/01/19 12:43:49;;;;;;;15.33;6.37;;;3.20;99.90;;;;;;4979403;29;20471;-46
2023/01/19 12:46:24;;;;;;;6.37;4.80;;;3.10;99.90;;;;;;4979491;29;20458;-45
2023/01/19 12:48:52;;;;;;;12.87;5.70;;;3.20;99.90;;;;;;4979028;29;20467;-46
2023/01/19 12:51:26;;;;;;;8.73;6.63;;;3.20;99.90;;;;;;4978915;29;20451;-43
2023/01/19 12:53:56;;;;;;;7.50;4.60;;;3.20;99.90;;;;;;4979148;29;20491;-43
2023/01/19 12:56:31;;;;;;;6.57;5.87;;;3.20;99.90;;;;;;4978468;28;20468;-44
2023/01/19 12:58:58;;;;;;;8.93;5.97;;;3.20;99.90;;;;;;4979415;28;20436;-42
2023/01/19 13:01:25;;;;;;;10.27;6.00;;;3.20;99.90;;;;;;4979318;29;20444;-44
2023/01/19 13:04:01;;;;;;;11.77;5.50;;;3.10;99.90;;;;;;4977031;29;20487;-43
2023/01/19 13:07:04;;;;;;;10.20;6.00;;;3.20;99.90;;;;;;4977695;29;20466;-52
2023/01/19 13:09:34;;;;;;;14.73;5.57;;;3.20;99.90;;;;;;4975641;29;20459;-43
2023/01/19 13:12:21;;;;;;;11.33;6.57;;;3.30;99.90;;;;;;4979611;29;20527;-40